Time;durP1;ratioP1;P1;durP2;ratioP2;P2;SDS_P1;SDS_P2;PMS_P1;PMS_P2;Temp;Humidity;BMP_temperature;BMP_pressure;BME280_temperature;BME280_humidity;BME280_pressure;Samples;Min_cycle;Max_cycle;Signal;HPM_P1;HPM_P2
2022/07/14 00:02:38;;;;;;;0.22;0.20;;;18.50;53.50;20.70;94425.00;;;;10480644;28;45152;-62
2022/07/14 00:07:58;;;;;;;0.30;0.20;;;18.50;53.70;20.70;94422.00;;;;10480271;28;45109;-62
2022/07/14 00:13:19;;;;;;;0.22;0.20;;;18.50;53.60;20.60;94432.00;;;;10480705;28;45111;-63
2022/07/14 00:18:44;;;;;;;0.65;0.20;;;18.50;53.30;20.60;94412.00;;;;10479901;28;45888;-61
2022/07/14 00:24:04;;;;;;;0.20;0.20;;;18.50;53.10;20.60;94403.00;;;;10480793;28;45489;-61
2022/07/14 00:29:25;;;;;;;0.30;0.28;;;18.50;53.10;20.60;94404.00;;;;10480209;28;45254;-61
2022/07/14 00:34:47;;;;;;;0.30;0.20;;;18.40;53.30;20.60;94388.00;;;;10479608;28;45855;-61
2022/07/14 00:40:09;;;;;;;0.50;0.30;;;18.50;53.20;20.60;94378.00;;;;10479561;28;45158;-61
2022/07/14 00:45:30;;;;;;;0.40;0.20;;;18.50;53.20;20.60;94385.00;;;;10479519;28;45105;-61
2022/07/14 00:50:52;;;;;;;0.17;0.17;;;18.50;53.30;20.60;94391.00;;;;10479815;28;45152;-61
2022/07/14 00:56:12;;;;;;;0.60;0.30;;;18.50;53.30;20.60;94381.00;;;;10479178;28;45216;-61
2022/07/14 01:01:33;;;;;;;0.20;0.20;;;18.50;53.30;20.60;94376.00;;;;10473999;28;45434;-61
2022/07/14 01:06:55;;;;;;;0.20;0.20;;;18.50;53.30;20.60;94370.00;;;;10476003;28;45879;-62
2022/07/14 01:12:15;;;;;;;0.32;0.20;;;18.50;53.40;20.60;94350.00;;;;10479493;28;45390;-61
2022/07/14 01:17:36;;;;;;;0.10;0.10;;;18.50;53.40;20.60;94347.00;;;;10478489;28;45826;-63
2022/07/14 01:22:58;;;;;;;0.17;0.17;;;18.50;53.50;20.60;94363.00;;;;10479217;28;45233;-63
2022/07/14 01:28:18;;;;;;;0.20;0.20;;;18.50;53.50;20.60;94355.00;;;;10477254;28;45225;-63
2022/07/14 01:33:39;;;;;;;0.15;0.10;;;18.50;53.60;20.60;94374.00;;;;10477822;28;45085;-63
2022/07/14 01:39:01;;;;;;;0.20;0.20;;;18.50;53.60;20.60;94366.00;;;;10476999;28;45076;-63
2022/07/14 01:44:22;;;;;;;0.70;0.10;;;18.40;53.50;20.60;94354.00;;;;10479065;28;45254;-62
2022/07/14 01:49:42;;;;;;;0.32;0.20;;;18.50;53.70;20.60;94341.00;;;;10484881;28;45206;-62
2022/07/14 01:55:05;;;;;;;0.45;0.20;;;18.50;53.60;20.60;94355.00;;;;10484766;28;45121;-63
2022/07/14 02:00:26;;;;;;;0.38;0.22;;;18.50;53.60;20.60;94348.00;;;;10484312;28;45143;-62
2022/07/14 02:05:47;;;;;;;0.10;0.10;;;18.50;53.50;20.60;94348.00;;;;10484232;28;45240;-62
2022/07/14 02:16:47;;;;;;;0.20;0.10;;;18.50;53.70;20.60;94351.00;;;;10483247;28;45096;-63
2022/07/14 02:22:08;;;;;;;0.28;0.20;;;18.50;53.70;20.60;94320.00;;;;10483035;28;45207;-62
2022/07/14 02:27:30;;;;;;;0.20;0.20;;;18.50;53.60;20.60;94345.00;;;;10483432;28;45108;-62
2022/07/14 02:32:50;;;;;;;0.13;0.10;;;18.40;53.60;20.60;94353.00;;;;10483119;28;45150;-62
2022/07/14 02:38:11;;;;;;;0.10;0.10;;;18.40;53.70;20.60;94332.00;;;;10482687;28;45174;-63
2022/07/14 02:43:34;;;;;;;0.20;0.20;;;18.50;53.70;20.60;94333.00;;;;10482926;28;45371;-62
2022/07/14 02:48:55;;;;;;;0.68;0.17;;;18.40;53.60;20.60;94337.00;;;;10482524;28;45188;-62
2022/07/14 02:54:15;;;;;;;0.20;0.20;;;18.50;53.60;20.60;94346.00;;;;10482685;28;45180;-62
2022/07/14 02:59:37;;;;;;;0.20;0.20;;;18.40;53.60;20.60;94331.00;;;;10481174;28;45871;-62
2022/07/14 03:04:58;;;;;;;0.13;0.13;;;18.50;53.60;20.60;94329.00;;;;10482492;28;45252;-63
2022/07/14 03:10:18;;;;;;;0.10;0.10;;;18.40;53.70;20.60;94320.00;;;;10481543;28;45172;-63
2022/07/14 03:15:40;;;;;;;0.30;0.30;;;18.40;53.60;20.60;94320.00;;;;10481410;28;45205;-62
2022/07/14 03:21:00;;;;;;;0.20;0.20;;;18.40;53.60;20.60;94310.00;;;;10481139;28;45854;-63
2022/07/14 03:26:21;;;;;;;0.15;0.15;;;18.50;53.70;20.60;94300.00;;;;10481799;28;45222;-62
2022/07/14 03:31:43;;;;;;;0.35;0.15;;;18.50;53.70;20.60;94323.00;;;;10481043;28;45440;-62
2022/07/14 03:37:03;;;;;;;0.30;0.30;;;18.40;53.60;20.60;94329.00;;;;10481008;28;45248;-63
2022/07/14 03:42:24;;;;;;;0.30;0.30;;;18.40;53.70;20.60;94336.00;;;;10480876;28;45163;-63
2022/07/14 03:47:46;;;;;;;0.30;0.17;;;18.40;53.70;20.60;94347.00;;;;10480739;28;45516;-63
2022/07/14 03:53:06;;;;;;;0.15;0.13;;;18.40;53.60;20.60;94348.00;;;;10480988;28;45755;-63
2022/07/14 03:58:27;;;;;;;0.20;0.20;;;18.40;53.70;20.60;94338.00;;;;10480325;28;45835;-63
2022/07/14 04:03:49;;;;;;;0.20;0.20;;;18.40;53.70;20.60;94342.00;;;;10480703;28;45847;-63
2022/07/14 04:09:09;;;;;;;0.32;0.28;;;18.40;53.80;20.60;94338.00;;;;10478679;28;45351;-62
2022/07/14 04:14:30;;;;;;;0.63;0.28;;;18.40;53.70;20.60;94348.00;;;;10480195;28;45848;-62
2022/07/14 04:19:52;;;;;;;0.10;0.10;;;18.50;53.80;20.60;94328.00;;;;10479076;28;45146;-64
2022/07/14 04:25:13;;;;;;;0.22;0.20;;;18.40;53.70;20.60;94324.00;;;;10479384;28;45312;-63
2022/07/14 04:30:34;;;;;;;0.40;0.20;;;18.40;53.80;20.60;94306.00;;;;10479414;28;45215;-62
2022/07/14 04:35:56;;;;;;;0.22;0.20;;;18.40;53.80;20.60;94303.00;;;;10479045;28;45221;-62
2022/07/14 04:41:16;;;;;;;0.75;0.20;;;18.40;53.80;20.60;94298.00;;;;10479340;28;45184;-63
2022/07/14 04:46:37;;;;;;;0.10;0.10;;;18.40;53.80;20.60;94302.00;;;;10478584;28;45673;-62
2022/07/14 04:52:05;;;;;;;0.30;0.20;;;18.50;53.80;20.60;94310.00;;;;10478919;28;45743;-62
2022/07/14 04:57:26;;;;;;;0.52;0.20;;;18.40;53.80;20.60;94333.00;;;;10477778;28;45784;-62
2022/07/14 05:02:46;;;;;;;0.32;0.17;;;18.40;53.80;20.60;94331.00;;;;10478896;28;45116;-62
2022/07/14 05:08:08;;;;;;;0.73;0.22;;;18.40;53.80;20.60;94349.00;;;;10477772;28;45155;-62
2022/07/14 05:13:28;;;;;;;0.20;0.20;;;18.40;53.80;20.60;94342.00;;;;10478608;28;45196;-63
2022/07/14 05:18:49;;;;;;;0.30;0.30;;;18.40;53.80;20.60;94338.00;;;;10477266;28;45743;-63
2022/07/14 05:24:11;;;;;;;0.17;0.17;;;18.40;53.80;20.60;94350.00;;;;10477733;28;45249;-62
2022/07/14 05:29:33;;;;;;;0.85;0.17;;;18.40;53.80;20.60;94353.00;;;;10477624;28;45155;-62
2022/07/14 05:34:53;;;;;;;0.20;0.20;;;18.40;53.80;20.60;94346.00;;;;10477528;28;45161;-62
2022/07/14 05:40:15;;;;;;;0.10;0.10;;;18.40;53.80;20.60;94334.00;;;;10477064;28;45378;-63
2022/07/14 05:45:36;;;;;;;0.20;0.20;;;18.40;53.90;20.60;94329.00;;;;10476804;28;45174;-62
2022/07/14 05:51:04;;;;;;;0.45;0.22;;;18.40;53.80;20.60;94348.00;;;;10477047;28;45207;-62
2022/07/14 05:56:26;;;;;;;0.20;0.20;;;18.40;53.90;20.60;94323.00;;;;10476668;28;45843;-62
2022/07/14 06:01:47;;;;;;;0.25;0.20;;;18.40;53.90;20.60;94336.00;;;;10476889;28;45172;-62
2022/07/14 06:07:07;;;;;;;0.25;0.10;;;18.40;53.90;20.60;94333.00;;;;10476625;28;45092;-62
2022/07/14 06:12:29;;;;;;;0.40;0.28;;;18.40;53.80;20.60;94330.00;;;;10476624;28;45197;-62
2022/07/14 06:17:50;;;;;;;0.20;0.10;;;18.50;53.90;20.60;94320.00;;;;10474779;28;45764;-63
2022/07/14 06:23:11;;;;;;;0.10;0.10;;;18.40;53.80;20.60;94300.00;;;;10477343;28;45178;-62
2022/07/14 06:28:33;;;;;;;0.30;0.20;;;18.40;53.80;20.60;94315.00;;;;10476579;28;45105;-62
2022/07/14 06:33:54;;;;;;;0.22;0.20;;;18.50;53.90;20.60;94320.00;;;;10481917;28;45746;-62
2022/07/14 06:39:14;;;;;;;0.10;0.10;;;18.50;53.80;20.60;94309.00;;;;10483113;28;45122;-62
2022/07/14 06:44:36;;;;;;;0.28;0.20;;;18.50;53.90;20.60;94311.00;;;;10483668;28;45147;-62
2022/07/14 06:49:57;;;;;;;0.20;0.20;;;18.50;53.80;20.60;94313.00;;;;10481288;28;45539;-62
2022/07/14 06:55:18;;;;;;;0.28;0.20;;;18.50;53.80;20.60;94304.00;;;;10482967;28;45154;-62
2022/07/14 07:00:40;;;;;;;0.20;0.20;;;18.50;53.80;20.60;94315.00;;;;10482952;28;45872;-63
2022/07/14 07:11:40;;;;;;;0.10;0.10;;;18.50;53.80;20.60;94302.00;;;;10440031;28;45681;-62
2022/07/14 07:17:01;;;;;;;0.38;0.20;;;18.40;53.80;20.60;94307.00;;;;10440643;28;45851;-62
2022/07/14 07:22:22;;;;;;;0.10;0.10;;;18.50;53.80;20.60;94293.00;;;;10440078;28;45169;-62
2022/07/14 07:27:42;;;;;;;0.30;0.30;;;18.50;53.90;20.70;94308.00;;;;10440400;28;45116;-63
2022/07/14 07:33:04;;;;;;;1.55;0.30;;;18.50;53.80;20.70;94301.00;;;;10443318;28;45136;-62
2022/07/14 07:38:25;;;;;;;0.20;0.20;;;18.50;53.80;20.70;94283.00;;;;10477755;28;45203;-62
2022/07/14 07:43:46;;;;;;;0.22;0.22;;;18.50;53.80;20.70;94291.00;;;;10447045;28;45891;-62
2022/07/14 07:49:08;;;;;;;0.30;0.30;;;18.50;53.80;20.70;94285.00;;;;10454743;28;45176;-62
2022/07/14 07:54:30;;;;;;;0.40;0.30;;;18.50;53.90;20.70;94286.00;;;;10453871;28;45700;-62
2022/07/14 07:59:51;;;;;;;0.70;0.20;;;18.50;53.90;20.70;94286.00;;;;10455840;28;45191;-62
2022/07/14 08:05:13;;;;;;;1.08;0.30;;;18.50;53.90;20.70;94289.00;;;;10455647;28;45146;-62
2022/07/14 08:10:34;;;;;;;0.55;0.25;;;18.50;53.80;20.70;94267.00;;;;10438733;28;45870;-63
2022/07/14 08:15:58;;;;;;;0.30;0.17;;;18.50;53.90;20.70;94271.00;;;;10439173;28;45203;-62
2022/07/14 08:21:20;;;;;;;0.47;0.22;;;18.50;53.80;20.70;94283.00;;;;10437920;28;45756;-63
2022/07/14 08:26:41;;;;;;;0.20;0.20;;;18.60;54.00;20.70;94287.00;;;;10438223;28;45136;-62
2022/07/14 08:32:01;;;;;;;0.30;0.30;;;18.50;53.90;20.70;94273.00;;;;10438397;28;45855;-61
2022/07/14 08:37:23;;;;;;;0.90;0.35;;;18.50;53.90;20.70;94265.00;;;;10437791;28;45189;-61
2022/07/14 08:42:46;;;;;;;0.93;0.28;;;18.50;53.90;20.70;94271.00;;;;10438512;28;45336;-61
2022/07/14 08:48:07;;;;;;;0.90;0.30;;;18.60;54.00;20.70;94269.00;;;;10437639;28;45242;-61
2022/07/14 08:53:29;;;;;;;0.32;0.30;;;18.60;54.00;20.70;94261.00;;;;10437664;28;45848;-61
2022/07/14 08:58:50;;;;;;;0.63;0.40;;;18.50;53.90;20.70;94263.00;;;;10436992;28;45198;-61
2022/07/14 09:04:10;;;;;;;0.20;0.20;;;18.50;53.90;20.70;94264.00;;;;10437375;28;45104;-64
2022/07/14 09:09:34;;;;;;;0.20;0.20;;;18.60;54.00;20.70;94267.00;;;;10436908;28;45168;-61
2022/07/14 09:20:36;;;;;;;0.68;0.40;;;18.50;54.00;20.70;94255.00;;;;10435598;28;45424;-63
2022/07/14 09:26:11;;;;;;;0.77;0.40;;;18.50;54.00;20.70;94266.00;;;;10435916;28;45733;-63
2022/07/14 09:31:32;;;;;;;0.32;0.30;;;18.50;54.00;20.70;94253.00;;;;10436240;28;45216;-63
2022/07/14 09:36:53;;;;;;;0.98;0.50;;;18.50;54.00;20.70;94261.00;;;;10435880;28;45729;-63
2022/07/14 09:42:15;;;;;;;0.60;0.32;;;18.60;54.00;20.70;94251.00;;;;10435807;28;45064;-62
2022/07/14 09:47:59;;;;;;;0.45;0.20;;;18.50;54.00;20.70;94242.00;;;;10455336;28;45170;-62
2022/07/14 09:53:24;;;;;;;0.52;0.38;;;18.60;53.90;20.70;94237.00;;;;10455751;28;45408;-63
2022/07/14 09:58:51;;;;;;;0.30;0.30;;;18.60;54.00;20.70;94240.00;;;;10457602;28;45258;-62
2022/07/14 10:04:12;;;;;;;1.13;0.65;;;18.60;54.00;20.70;94234.00;;;;10454259;28;45208;-63
2022/07/14 10:09:37;;;;;;;0.90;0.40;;;18.60;54.00;20.70;94236.00;;;;10459955;28;45705;-63
2022/07/14 10:15:02;;;;;;;0.47;0.30;;;18.60;54.00;20.70;94233.00;;;;10460806;28;45132;-63
2022/07/14 10:20:24;;;;;;;0.40;0.40;;;18.60;54.00;20.70;94220.00;;;;10460531;28;45371;-62
2022/07/14 10:25:47;;;;;;;0.73;0.40;;;18.60;54.00;20.70;94232.00;;;;10459051;28;45267;-63
2022/07/14 10:31:21;;;;;;;0.40;0.40;;;18.60;54.00;20.70;94219.00;;;;10466600;28;45335;-61
2022/07/14 10:36:49;;;;;;;1.15;0.40;;;18.60;53.90;20.70;94232.00;;;;10483815;28;45700;-61
2022/07/14 10:42:19;;;;;;;0.47;0.38;;;18.60;54.00;20.70;94215.00;;;;10482990;28;45828;-62
2022/07/14 10:47:49;;;;;;;1.15;0.50;;;18.60;54.00;20.70;94221.00;;;;10483112;28;45223;-62
2022/07/14 10:53:10;;;;;;;0.30;0.30;;;18.60;54.10;20.70;94226.00;;;;10483022;28;45187;-62
2022/07/14 10:58:31;;;;;;;0.30;0.30;;;18.60;54.10;20.70;94211.00;;;;10482749;28;45175;-62
2022/07/14 11:03:55;;;;;;;1.13;0.35;;;18.60;54.10;20.70;94214.00;;;;10483312;28;45163;-62
2022/07/14 11:09:42;;;;;;;0.50;0.30;;;18.60;54.10;20.80;94193.00;;;;10482196;28;45171;-62
2022/07/14 11:15:36;;;;;;;0.30;0.30;;;18.60;54.00;20.80;94202.00;;;;10476899;28;45781;-62
2022/07/14 11:21:03;;;;;;;1.50;0.40;;;18.60;54.10;20.80;94196.00;;;;10469711;28;45139;-62
2022/07/14 11:26:38;;;;;;;0.57;0.40;;;18.60;54.20;20.70;94194.00;;;;10481985;28;45131;-62
2022/07/14 11:31:59;;;;;;;1.02;0.40;;;18.60;54.20;20.80;94181.00;;;;10481706;28;45724;-63
2022/07/14 11:37:24;;;;;;;0.90;0.60;;;18.70;54.30;20.80;94191.00;;;;10481132;28;45210;-63
2022/07/14 11:42:45;;;;;;;1.20;0.40;;;18.60;54.30;20.80;94178.00;;;;10481388;28;45122;-63
2022/07/14 11:48:07;;;;;;;1.23;0.40;;;18.60;54.30;20.80;94179.00;;;;10480598;28;45855;-63
2022/07/14 11:53:29;;;;;;;1.00;0.40;;;18.60;54.30;20.80;94164.00;;;;10481207;28;45428;-62
2022/07/14 11:58:51;;;;;;;0.60;0.50;;;18.60;54.30;20.80;94159.00;;;;10479558;28;45848;-62
2022/07/14 12:04:14;;;;;;;0.77;0.50;;;18.70;54.50;20.80;94137.00;;;;10480597;28;45152;-63
2022/07/14 12:09:36;;;;;;;1.02;0.50;;;18.70;54.50;20.80;94136.00;;;;10479665;28;45179;-63
2022/07/14 12:14:57;;;;;;;0.50;0.40;;;18.70;54.50;20.80;94122.00;;;;10480196;28;45208;-62
2022/07/14 12:20:18;;;;;;;0.65;0.30;;;18.70;54.60;20.90;94130.00;;;;10480023;28;45188;-61
2022/07/14 12:25:43;;;;;;;0.93;0.40;;;18.70;54.50;20.90;94136.00;;;;10480226;28;45844;-61
2022/07/14 12:31:04;;;;;;;1.30;0.60;;;18.70;54.50;20.90;94128.00;;;;10479416;28;45092;-61
2022/07/14 12:36:30;;;;;;;2.03;0.50;;;18.70;54.60;20.90;94130.00;;;;10480030;28;45130;-61
2022/07/14 12:41:52;;;;;;;1.07;0.53;;;18.80;54.60;20.90;94122.00;;;;10479521;28;45160;-61
2022/07/14 12:47:14;;;;;;;1.17;0.50;;;18.80;54.80;20.90;94114.00;;;;10479474;28;45159;-61
2022/07/14 12:52:50;;;;;;;0.40;0.40;;;18.70;54.60;20.90;94117.00;;;;10479351;28;45174;-61
2022/07/14 12:58:15;;;;;;;0.63;0.45;;;18.70;54.60;20.90;94093.00;;;;10479205;28;45183;-61
2022/07/14 13:03:35;;;;;;;0.85;0.47;;;18.80;54.70;20.90;94089.00;;;;10479511;28;45103;-61
2022/07/14 13:08:56;;;;;;;0.90;0.47;;;18.80;54.50;20.90;94101.00;;;;10478716;28;45144;-61
2022/07/14 13:14:18;;;;;;;1.25;0.40;;;18.80;54.80;20.90;94096.00;;;;10479229;28;45283;-61
2022/07/14 13:19:38;;;;;;;0.90;0.50;;;18.80;54.80;20.90;94090.00;;;;10478337;28;45663;-61
2022/07/14 13:24:59;;;;;;;0.60;0.40;;;18.80;54.80;21.00;94080.00;;;;10478931;28;45154;-64
2022/07/14 13:30:21;;;;;;;0.82;0.50;;;18.80;54.80;21.00;94091.00;;;;10478240;28;45220;-61
2022/07/14 13:35:41;;;;;;;0.60;0.50;;;18.80;54.70;21.00;94076.00;;;;10478383;28;45257;-61
2022/07/14 13:41:03;;;;;;;0.63;0.40;;;18.90;54.80;21.00;94082.00;;;;10480828;28;45104;-61
2022/07/14 13:46:25;;;;;;;0.90;0.60;;;18.90;54.50;21.10;94093.00;;;;10486252;28;45388;-61
2022/07/14 13:57:24;;;;;;;1.15;0.60;;;18.90;54.90;21.00;94084.00;;;;10485149;28;45147;-61
2022/07/14 14:08:29;;;;;;;2.75;0.80;;;18.90;54.80;21.10;94084.00;;;;10423545;28;45464;-61
2022/07/14 14:13:49;;;;;;;2.00;0.70;;;18.90;54.70;21.10;94075.00;;;;10442843;28;45839;-61
2022/07/14 14:19:11;;;;;;;1.27;0.70;;;19.00;54.50;21.20;94062.00;;;;10458135;28;45180;-63
2022/07/14 14:24:33;;;;;;;0.90;0.68;;;19.10;54.20;21.20;94069.00;;;;10460793;28;45848;-61
2022/07/14 14:29:53;;;;;;;2.20;0.60;;;19.10;54.10;21.30;94059.00;;;;10466819;28;45128;-62
2022/07/14 14:35:15;;;;;;;2.22;0.80;;;19.20;54.10;21.30;94041.00;;;;10442769;28;45814;-62
2022/07/14 14:40:37;;;;;;;3.38;0.70;;;19.20;54.40;21.30;94049.00;;;;10476213;28;45789;-63
2022/07/14 14:45:57;;;;;;;3.70;0.90;;;19.20;54.60;21.30;94039.00;;;;10483019;28;45716;-63
2022/07/14 14:51:19;;;;;;;2.05;0.80;;;19.20;54.70;21.40;94046.00;;;;10482452;28;45843;-62
2022/07/14 14:56:40;;;;;;;5.95;1.10;;;19.20;54.70;21.40;94031.00;;;;10456432;28;45170;-62
2022/07/14 15:02:00;;;;;;;6.20;1.60;;;19.20;54.90;21.40;94029.00;;;;10441358;28;45163;-62
2022/07/14 15:07:23;;;;;;;5.70;1.05;;;19.20;55.10;21.40;94036.00;;;;10448209;28;45221;-62
2022/07/14 15:12:44;;;;;;;3.45;0.90;;;19.30;55.00;21.40;94023.00;;;;10482379;28;45961;-61
2022/07/14 15:18:04;;;;;;;4.22;1.13;;;19.30;54.90;21.50;94014.00;;;;10466010;28;45367;-63
2022/07/14 15:23:27;;;;;;;4.13;0.90;;;19.30;54.80;21.50;94029.00;;;;10481271;28;45143;-62
2022/07/14 15:28:47;;;;;;;2.65;1.00;;;19.40;54.50;21.50;94026.00;;;;10481032;28;45216;-62
2022/07/14 15:34:08;;;;;;;2.53;1.00;;;19.40;54.40;21.50;94016.00;;;;10482018;28;45851;-62
2022/07/14 15:45:10;;;;;;;2.20;0.90;;;19.40;54.20;21.60;94022.00;;;;10480681;28;45758;-62
2022/07/14 15:50:30;;;;;;;1.88;0.90;;;19.50;54.20;21.60;94009.00;;;;10445987;28;45097;-61
2022/07/14 15:55:52;;;;;;;3.22;0.80;;;19.50;53.90;21.70;94012.00;;;;10439611;28;45152;-62
2022/07/14 16:01:13;;;;;;;2.03;0.68;;;19.50;53.90;21.70;93988.00;;;;10439386;28;45182;-61
2022/07/14 16:06:34;;;;;;;2.70;0.90;;;19.60;53.90;21.70;93988.00;;;;10439302;28;45178;-61
2022/07/14 16:11:56;;;;;;;1.77;0.73;;;19.60;53.80;21.70;93977.00;;;;10439243;28;45116;-61
2022/07/14 16:17:17;;;;;;;3.53;0.70;;;19.60;53.70;21.80;93989.00;;;;10438487;28;45735;-62
2022/07/14 16:22:38;;;;;;;2.95;1.00;;;19.70;53.80;21.80;93991.00;;;;10438592;28;45199;-62
2022/07/14 16:27:59;;;;;;;1.90;0.70;;;19.70;53.90;21.80;93987.00;;;;10441172;28;45404;-61
2022/07/14 16:33:20;;;;;;;2.03;0.60;;;19.70;53.70;21.80;93995.00;;;;10480799;28;45767;-62
2022/07/14 16:38:40;;;;;;;1.42;0.60;;;19.70;53.70;21.80;93980.00;;;;10479704;28;45132;-61
2022/07/14 16:44:02;;;;;;;1.10;0.57;;;19.70;53.60;21.80;93982.00;;;;10480078;28;45676;-61
2022/07/14 16:49:23;;;;;;;1.48;0.70;;;19.70;53.50;21.70;93982.00;;;;10479791;28;45209;-62
2022/07/14 16:54:43;;;;;;;1.17;0.70;;;19.70;53.60;21.70;93983.00;;;;10480038;28;45311;-62
2022/07/14 17:00:12;;;;;;;1.70;0.60;;;19.60;53.60;21.70;93982.00;;;;10479180;28;45859;-62
2022/07/14 17:11:11;;;;;;;2.50;0.70;;;19.60;53.50;21.80;93970.00;;;;10477227;28;45160;-62
2022/07/14 17:16:33;;;;;;;1.30;0.60;;;19.60;53.50;21.80;93974.00;;;;10476907;28;45854;-61
2022/07/14 17:21:54;;;;;;;1.67;0.50;;;19.60;53.50;21.70;93978.00;;;;10477822;28;45169;-61
2022/07/14 17:27:14;;;;;;;1.73;0.50;;;19.60;53.40;21.80;93980.00;;;;10454654;28;45516;-61
2022/07/14 17:32:36;;;;;;;2.72;0.70;;;19.70;53.40;21.90;93990.00;;;;10475039;28;45220;-62
2022/07/14 17:37:56;;;;;;;1.48;0.60;;;19.70;53.40;21.80;93977.00;;;;10476750;28;45108;-62
2022/07/14 17:43:17;;;;;;;1.58;0.60;;;19.60;53.30;21.80;93988.00;;;;10477611;28;45276;-62
2022/07/14 17:48:39;;;;;;;2.83;0.90;;;19.70;53.60;21.70;93995.00;;;;10477013;28;45125;-61
2022/07/14 17:53:59;;;;;;;3.13;0.73;;;19.60;53.60;21.70;93985.00;;;;10477383;28;45242;-62
2022/07/14 17:59:20;;;;;;;2.42;0.63;;;19.60;53.60;21.70;93987.00;;;;10476991;28;45268;-61
2022/07/14 18:04:42;;;;;;;2.78;0.75;;;19.60;53.70;21.70;93987.00;;;;10470494;28;45259;-61
2022/07/14 18:10:04;;;;;;;1.45;0.60;;;19.50;53.70;21.60;93981.00;;;;10456154;28;45304;-61
2022/07/14 18:15:25;;;;;;;1.85;0.80;;;19.50;53.80;21.60;93983.00;;;;10455006;28;45265;-61
2022/07/14 18:20:46;;;;;;;2.25;0.68;;;19.50;53.80;21.60;93977.00;;;;10455025;28;45378;-61
2022/07/14 18:26:07;;;;;;;1.73;0.60;;;19.50;53.80;21.60;93980.00;;;;10448994;28;45128;-61
2022/07/14 18:31:27;;;;;;;1.60;0.52;;;19.40;53.80;21.60;93988.00;;;;10450180;28;45303;-62
2022/07/14 18:36:49;;;;;;;1.42;0.60;;;19.40;53.90;21.50;93987.00;;;;10463076;28;45417;-62
2022/07/14 18:42:09;;;;;;;1.30;0.63;;;19.40;53.90;21.50;93991.00;;;;10482167;28;45119;-61
2022/07/14 18:47:30;;;;;;;2.15;0.52;;;19.40;54.00;21.50;93990.00;;;;10482636;28;45186;-61
2022/07/14 18:52:53;;;;;;;1.80;0.70;;;19.40;54.00;21.50;93973.00;;;;10481988;28;45216;-61
2022/07/14 18:58:13;;;;;;;1.35;0.57;;;19.30;54.00;21.50;93979.00;;;;10479271;28;45473;-61
2022/07/14 19:03:35;;;;;;;1.60;0.60;;;19.30;54.00;21.50;93994.00;;;;10467341;28;45994;-61
2022/07/14 19:08:57;;;;;;;0.98;0.40;;;19.30;54.00;21.40;93997.00;;;;10439362;28;45807;-60
2022/07/14 19:14:17;;;;;;;1.50;0.60;;;19.30;54.10;21.40;93995.00;;;;10448597;28;45314;-62
2022/07/14 19:19:38;;;;;;;1.90;0.47;;;19.30;54.10;21.40;93997.00;;;;10437951;28;45213;-61
2022/07/14 19:24:59;;;;;;;1.17;0.60;;;19.30;54.10;21.40;93991.00;;;;10439416;28;45381;-61
2022/07/14 19:30:20;;;;;;;0.88;0.40;;;19.20;54.10;21.40;94003.00;;;;10438652;28;45717;-60
2022/07/14 19:35:40;;;;;;;0.95;0.40;;;19.20;54.20;21.40;94016.00;;;;10438850;28;45194;-61
2022/07/14 19:41:02;;;;;;;0.95;0.47;;;19.20;54.20;21.40;94025.00;;;;10439029;28;45826;-61
2022/07/14 19:46:23;;;;;;;0.63;0.50;;;19.20;54.20;21.40;94033.00;;;;10462835;28;45248;-61
2022/07/14 19:51:46;;;;;;;0.95;0.50;;;19.20;54.30;21.30;94033.00;;;;10478336;28;45172;-61
2022/07/14 19:57:08;;;;;;;0.95;0.50;;;19.20;54.30;21.40;94030.00;;;;10478061;28;45728;-61
2022/07/14 20:02:30;;;;;;;0.40;0.40;;;19.20;54.90;21.40;94022.00;;;;10474377;28;45205;-61
2022/07/14 20:07:51;;;;;;;1.08;0.60;;;19.20;54.00;21.30;94036.00;;;;10475025;28;45594;-61
2022/07/14 20:13:14;;;;;;;0.65;0.50;;;19.20;54.20;21.30;94045.00;;;;10478945;28;45206;-61
2022/07/14 20:18:34;;;;;;;0.80;0.40;;;19.10;54.20;21.30;94043.00;;;;10478802;28;45137;-61
2022/07/14 20:23:55;;;;;;;1.48;0.50;;;19.10;54.20;21.30;94051.00;;;;10474950;28;45871;-61
2022/07/14 20:34:56;;;;;;;0.73;0.40;;;19.10;54.30;21.20;94055.00;;;;10479306;28;45188;-62
2022/07/14 20:40:17;;;;;;;1.13;0.68;;;19.10;54.30;21.20;94056.00;;;;10479351;28;45675;-62
2022/07/14 20:45:39;;;;;;;0.93;0.60;;;19.10;54.30;21.20;94055.00;;;;10478374;28;45198;-62
2022/07/14 20:51:00;;;;;;;0.85;0.50;;;19.10;54.30;21.20;94070.00;;;;10478465;28;45169;-62
2022/07/14 20:56:21;;;;;;;0.52;0.40;;;19.00;54.30;21.20;94057.00;;;;10478377;28;45130;-61
2022/07/14 21:01:43;;;;;;;1.13;0.70;;;19.00;54.40;21.20;94067.00;;;;10479080;28;45149;-61
2022/07/14 21:07:04;;;;;;;0.65;0.50;;;19.00;54.40;21.20;94054.00;;;;10478200;28;45210;-61
2022/07/14 21:12:25;;;;;;;1.08;0.57;;;19.10;54.50;21.20;94057.00;;;;10478115;28;45846;-61
2022/07/14 21:17:47;;;;;;;1.00;0.63;;;19.00;54.50;21.20;94065.00;;;;10477945;28;45362;-61
2022/07/14 21:23:07;;;;;;;1.05;0.50;;;19.00;54.50;21.20;94073.00;;;;10477772;28;45243;-61
2022/07/14 21:28:28;;;;;;;0.60;0.50;;;19.00;54.60;21.10;94076.00;;;;10477441;28;45143;-61
2022/07/14 21:33:51;;;;;;;1.17;0.50;;;19.00;54.70;21.20;94084.00;;;;10477935;28;45416;-61
2022/07/14 21:39:13;;;;;;;1.00;0.50;;;19.00;54.70;21.10;94090.00;;;;10477304;28;45833;-61
2022/07/14 21:44:34;;;;;;;1.35;0.70;;;19.00;54.70;21.10;94098.00;;;;10477756;28;45146;-61
2022/07/14 21:49:55;;;;;;;1.17;0.43;;;19.00;55.40;21.10;94095.00;;;;10476488;28;45351;-61
2022/07/14 21:55:19;;;;;;;2.30;0.60;;;19.00;54.70;21.10;94104.00;;;;10477036;28;45786;-61
2022/07/14 22:00:39;;;;;;;0.77;0.60;;;19.00;54.70;21.10;94106.00;;;;10477903;28;45415;-61
2022/07/14 22:06:01;;;;;;;1.17;0.60;;;19.00;54.70;21.10;94112.00;;;;10483272;28;45231;-61
2022/07/14 22:11:21;;;;;;;1.15;0.60;;;19.00;54.80;21.10;94115.00;;;;10484291;28;45137;-61
2022/07/14 22:16:42;;;;;;;0.93;0.60;;;18.90;54.70;21.10;94117.00;;;;10484408;28;45780;-61
2022/07/14 22:22:04;;;;;;;0.75;0.63;;;19.00;54.80;21.10;94137.00;;;;10484104;28;45190;-62
2022/07/14 22:27:25;;;;;;;0.50;0.40;;;18.90;54.90;21.10;94150.00;;;;10484417;28;45232;-61
2022/07/14 22:32:47;;;;;;;0.70;0.50;;;18.90;54.90;21.10;94151.00;;;;10484293;28;45547;-62
2022/07/14 22:38:09;;;;;;;1.20;0.52;;;19.00;55.00;21.10;94158.00;;;;10482979;28;45282;-61
2022/07/14 22:43:30;;;;;;;0.47;0.47;;;18.90;54.90;21.10;94158.00;;;;10483041;28;45111;-61
2022/07/14 22:48:50;;;;;;;0.70;0.60;;;18.90;54.80;21.10;94177.00;;;;10482813;28;45100;-61
2022/07/14 22:54:13;;;;;;;1.00;0.70;;;18.90;55.00;21.10;94171.00;;;;10483744;28;45125;-63
2022/07/14 22:59:33;;;;;;;0.50;0.50;;;18.90;55.00;21.10;94172.00;;;;10483141;28;45359;-61
2022/07/14 23:04:54;;;;;;;1.67;0.60;;;18.90;55.00;21.10;94169.00;;;;10483374;28;45771;-61
2022/07/14 23:10:16;;;;;;;0.57;0.50;;;18.90;55.00;21.10;94180.00;;;;10482361;28;45224;-61
2022/07/14 23:15:36;;;;;;;0.80;0.55;;;18.90;55.00;21.10;94179.00;;;;10481693;28;45202;-62
2022/07/14 23:20:57;;;;;;;0.73;0.60;;;18.90;55.10;21.10;94161.00;;;;10481996;28;45305;-62
2022/07/14 23:26:19;;;;;;;0.50;0.50;;;18.90;55.20;21.10;94159.00;;;;10481556;28;45727;-62
2022/07/14 23:31:40;;;;;;;0.80;0.55;;;18.90;55.10;21.00;94168.00;;;;10481350;28;45180;-63
2022/07/14 23:37:01;;;;;;;0.70;0.60;;;19.00;55.30;21.00;94154.00;;;;10481025;28;45183;-62
2022/07/14 23:42:23;;;;;;;0.77;0.55;;;18.90;55.20;21.00;94159.00;;;;10480823;28;45104;-64
2022/07/14 23:47:44;;;;;;;0.80;0.50;;;18.90;55.30;21.00;94167.00;;;;10481398;28;45499;-62
2022/07/14 23:53:05;;;;;;;1.00;0.70;;;18.90;55.20;21.00;94168.00;;;;10481160;28;45708;-63
2022/07/14 23:58:26;;;;;;;0.60;0.60;;;18.90;55.50;21.00;94180.00;;;;10480487;28;45762;-63
